AirNav   SIMCOM
 
 1511 users online  

9R5 Hunt Airport
Portland, Texas, USA

GOING TO PORTLAND?


FAA INFORMATION EFFECTIVE 07 DECEMBER 2017

Location

FAA Identifier: 9R5
Lat/Long: 27-53-12.0017N / 097-20-58.6898W
27-53.200028N / 097-20.978163W
27.8866671 / -97.3496361
(estimated)
Elevation: 40 ft. / 12.2 m (surveyed)
Variation: 07E (1985)
From city: 2 miles NW of PORTLAND, TX
Time zone: UTC -6 (UTC -5 during Daylight Saving Time)
Zip code: 78374

Airport Operations

Airport use: Open to the public
Activation date: 12/1944
Control tower: no
ARTCC: HOUSTON CENTER
FSS: SAN ANGELO FLIGHT SERVICE STATION
NOTAMs facility: SJT (NOTAM-D service available)
Attendance: UNATNDD
Wind indicator: yes
Segmented circle: no

Airport Communications

CTAF: 122.9
WX AWOS-3 at TFP (7 nm E): 118.775 (361-758-8961)
WX ASOS at CRP (11 nm SW): PHONE 361-289-0191
WX AWOS-1 at T69 (14 nm NW): 118.25 (361-364-1844)
WX AWOS-3 at RAS (15 nm E): 118.425 (361-749-0537)
WX AWOS-3 at RBO (19 nm W): 118.175 (361-767-1982)

Nearby radio navigation aids

VOR radial/distance  VOR name  Freq  Var
CRPr092/5.2CORPUS CHRISTI VORTAC115.5009E
NGPr340/12.4TRUAX VORTAC114.0006E
ALIr070/(36.7)ALICE VOR114.5006E

 
NDB name  Hdg/Dist  Freq  Var  ID
MELLON RANCH192/24.837506EMNO -- -. ---

Airport Services

Bottled oxygen: NONE
Bulk oxygen: NONE

Runway Information

Runway 14L/32R

Dimensions: 2650 x 20 ft. / 808 x 6 m
Surface: asphalt, in poor condition
HAS SEVERE GRASS ENCROACHMENT, POT HOLES AND LOOSE GRAVEL ON RWY.
Weight bearing capacity: 
Single wheel: 9.0
Operational restrictions: LIMITED LINE OF SIGHT BTN THLDS; SOUTHERN 600 FT OF RY DROPS OFF APPROXLY 8 FT.
RUNWAY 14L  RUNWAY 32R
Latitude: 27-53.428500N27-53.050833N
Longitude: 097-21.044000W097-20.795833W
Elevation: 38.0 ft.22.0 ft.
Gradient: 0.6% UP0.1%
Traffic pattern: rightleft
Obstructions: 57 ft. pline, 2982 ft. from runway, 48:1 slope to clear
+19 FT ROAD FM THLD ACROSS APCH.
6 ft. brush, 200 ft. from runway

Runway 14R/32L

Dimensions: 1400 x 60 ft. / 427 x 18 m
Surface: turf/gravel, in poor condition
HEAVY RUTTING ALONG ENTIRE RUNWAY LENGTH
Operational restrictions: RY CLSD INDEFLY.
RUNWAY 14R  RUNWAY 32L
Latitude: 27-53.218167N27-53.031833N
Longitude: 097-21.165500W097-21.011333W
Elevation: 32.0 ft.35.0 ft.
Gradient: 0.1%0.1%
Traffic pattern: rightleft

Airport Ownership and Management from official FAA records

Ownership: Privately-owned
Owner: JANIE MITCHELL
BOX 60
PORTLAND, TX 78374
Phone 361-643-3950
Manager: JANIE MITCHELL
BOX 60
PORTLAND, TX 78374
Phone 361-643-3950

Airport Operational Statistics

Aircraft based on the field: 8
Single engine airplanes: 5
Ultralights: 3
    
Aircraft operations: avg 40/week *
67% local general aviation
33% transient general aviation
* for 12-month period ending 15 March 2017

Additional Remarks

NOISE ABATEMENT PROCEDURES IN EFFECT - CALL ARPT MGR AT 361-643-3950.
OWNER RESIDES ON ARPT.
RY 32R GROUND DROPS OFF APPROX 10 FT AT THLD.
FOR CD CTC CRP APCH AT 361-299-4230.

Instrument Procedures

There are no published instrument procedures at 9R5.

Some nearby airports with instrument procedures:

KTFP - McCampbell-Porter Airport (7 nm E)
KCRP - Corpus Christi International Airport (11 nm SW)
KNGP - Corpus Christi Naval Air Station/Truax Field (12 nm S)
T69 - Alfred C 'Bubba' Thomas Airport (14 nm NW)
KRAS - Mustang Beach Airport (15 nm E)
KRBO - Nueces County Airport (19 nm W)
 
Loc | Ops | Rwys | IFR | FBO | Links
Com | Nav | Svcs | Stats | Notes


 
Area around 9R5 (Hunt Airport)
 
Road maps at: MapQuest Bing Google
 
Aerial photo
WARNING: Photo may not be current or correct
Aerial photo of 9R5 (Hunt Airport)
Do you have a better or more recent aerial photo of Hunt Airport that you would like to share? If so, please send us your photo.

 
Sectional chart

 
Airport distance calculator
Flying to Hunt Airport? Find the distance to fly.

From to 9R5

Sunrise and sunset
Times for 18-Dec-2017
 Local
(UTC-6)
 Zulu
(UTC)
Morning civil twilight06:5012:50
Sunrise07:1613:16
Sunset17:3623:36
Evening civil twilight18:0200:02

Current date and time
Zulu (UTC)  18-Dec-2017 16:05:56
Local (UTC-6)  18-Dec-2017 10:05:56
 
METAR
KTFP 
7nm E 
181555Z AUTO 09008KT 10SM BKN120 16/14 A3014 RMK AO2 T01570144
KCRP 
11nm SW 
181551Z 13006KT 7SM -RA FEW005 SCT080 OVC120 14/14 A3015 RMK AO2 RAE09B32 SLP208 P0000 T01440144
KNGP 
13nm S 
181556Z 11004KT 7SM FEW010 SCT050 OVC130 16/14 A3015 RMK AO2 RAB11E43 SLP209 P0000 T01610144
KRBO 
19nm W 
181555Z AUTO 29006KT 3SM -RA OVC004 14/13 A3018 RMK AO2 LTG DSNT NE T01350131
KRKP 
20nm NE 
181553Z AUTO 11009KT 5SM BR OVC005 14/13 A3013 RMK AO2 RAE1455B01E28 SLP205 P0000 T01390133
TAF
KCRP 
11nm SW 
181407Z 1814/1912 08006KT 5SM BR VCSH SCT007 BKN100 TEMPO 1814/1816 3SM SHRA BR BKN007 OVC100 FM181600 05008KT 5SM BR VCSH OVC008 FM190100 11006KT 4SM BR OVC006 FM190800 07006KT 2SM BR VCSH OVC006
KNGP 
13nm S 
1815/1915 04008KT 9999 VCSH FEW009 FEW020 BKN050 OVC120 641309 642204 QNH3005INS TEMPO 1815/1818 6000 -RA BR BKN006 OVC012 TEMPO 1818/1821 07008KT 6000 -RA BR BKN007 OVC020 FM182100 08008KT 8000 BR FEW007 BKN010 OVC020 641808 QNH3004INS TEMPO 1821/1823 SCT005 OVC008 FM182300 13008KT 6000 BR OVC005 612006 QNH3004INS FM190300 15008KT 4800 BR VCSH SCT005 BKN012 OVC030 600000 QNH3008INS TEMPO 1903/1907 2400 -SHRA BR OVC004 FM190700 16010KT 9000 BR VCTS FEW006 BKN015CB BKN040 OVC250 QNH3004INS TEMPO
NOTAMs
Click for the latest NOTAMs
NOTAMs are issued by the DoD/FAA and will open in a separate window not controlled by AirNav.

 

 
 

Would you like to see your business listed on this page?

 If your business provides an interesting product or service to pilots, flight crews, aircraft, or users of the Hunt Airport, you should consider listing it here.  To start the listing process, click on the button below
 
Add a business
 

Other Pages about Hunt Airport

Update a link
 
Copyright © AirNav, LLC. All rights reserved. Privacy Policy  Contact